Decoded Metar for KCNK (CONCORDIA in KS, USA) (IATA:CNK) | Meteo·Mobile Aviation Weather
aviador You're here:

KCNK Decoded Metar

CONCORDIA in KS, USA
Report Time2018-09-19 13:55:00
UTC Time2018-09-19 14:37:21
Flight Rules vfr VFR
Wind180° at 14 Gusting to 19 kt
W.Decomp.*RWY 17: 14.0 kt HW 1.0 kt RCW
RWY 21: 11.3 kt HW 8.2 kt LCW
RWY 12: 8.2 kt HW 11.3 kt RCW
W.Rank180° ranks 1
Current wind is above 180° avg. (13.0)
Visibility9999 m
Phenomena:N/A
Clouds:N/A
Expected CloudBase > 1,600 ft AGL from Temp-Dew spread
CeilingNone
Temp25°C (ISA +13)
Dew Point21°C (79% RH)
AAT24.2°C
QNH1012 hPa
Density Alt3,327 ft
Elevation1,467 ft
Report Wrong Elevation
Raw Report
KCNK 191355Z AUTO 18014G19KT 10SM CLR 25/21 A2987 RMK AO2 SLP098
T02500206=

Extra information for KCNK:More info

Metar Taf Metar & Taf Last 4 Metars F.Rules Stats Wind Profile Meteogram Temp Stats Airport Information Weather charts Add Link Nearby VenuesMetar ALERT Operation Metar Decoded Social comments

AIRNAV info for KCNK